createdAt,value
2019-03-28T00:04:26.110Z,102368.36
2019-03-28T00:09:32.011Z,102366.78
2019-03-28T00:14:38.321Z,102369.84
2019-03-28T00:19:45.122Z,102368.95
2019-03-28T00:24:56.256Z,102360.25
2019-03-28T00:30:02.267Z,102359.23
2019-03-28T00:35:08.442Z,102354.88
2019-03-28T00:40:16.962Z,102356.09
2019-03-28T00:45:22.840Z,102358.31
2019-03-28T00:50:28.551Z,102356.15
2019-03-28T00:55:34.146Z,102366.63
2019-03-28T01:00:41.339Z,102356.35
2019-03-28T01:05:48.742Z,102359.72
2019-03-28T01:10:56.837Z,102365.22
2019-03-28T01:16:04.365Z,102363.65
2019-03-28T01:21:10.552Z,102364.63
2019-03-28T01:26:16.260Z,102362.84
2019-03-28T01:31:21.998Z,102360.48
2019-03-28T01:36:27.780Z,102360.62
2019-03-28T01:41:35.170Z,102360.38
2019-03-28T01:46:41.092Z,102361.31
2019-03-28T01:51:46.695Z,102355.64
2019-03-28T01:56:54.637Z,102361.38
2019-03-28T02:02:01.816Z,102364.32
2019-03-28T02:07:09.709Z,102370.73
2019-03-28T02:12:17.144Z,102370.69
2019-03-28T02:17:23.489Z,102366.77
2019-03-28T02:22:31.074Z,102368.05
2019-03-28T02:27:38.538Z,102374.11
2019-03-28T02:32:45.491Z,102374.59
2019-03-28T02:37:52.779Z,102368.88
2019-03-28T02:42:58.830Z,102371.10
2019-03-28T02:48:04.883Z,102373.35
2019-03-28T02:53:10.879Z,102367.71
2019-03-28T02:58:16.740Z,102382.19
2019-03-28T03:03:22.627Z,102377.38
2019-03-28T03:08:28.585Z,102376.92
2019-03-28T03:13:34.448Z,102385.88
2019-03-28T03:18:41.737Z,102383.03
2019-03-28T03:23:47.511Z,102373.58
2019-03-28T03:28:53.668Z,102381.65
2019-03-28T03:34:00.546Z,102385.02
2019-03-28T03:39:08.275Z,102387.22
2019-03-28T03:44:13.880Z,102379.47
2019-03-28T03:49:19.571Z,102390.05
2019-03-28T03:54:26.898Z,102382.23
2019-03-28T03:59:32.705Z,102383.47
2019-03-28T04:04:39.923Z,102385.08
2019-03-28T04:09:47.430Z,102391.11
2019-03-28T04:14:53.389Z,102398.22
2019-03-28T04:19:59.037Z,102388.36
2019-03-28T04:25:06.172Z,102393.02
2019-03-28T04:30:13.773Z,102402.75
2019-03-28T04:35:19.591Z,102403.19
2019-03-28T04:40:25.207Z,102414.20
2019-03-28T04:45:32.286Z,102417.58
2019-03-28T04:50:37.920Z,102420.00
2019-03-28T04:55:43.953Z,102422.41
2019-03-28T05:00:51.012Z,102431.52
2019-03-28T05:05:57.339Z,102435.90
2019-03-28T05:11:04.554Z,102435.89
2019-03-28T05:16:11.071Z,102442.05
2019-03-28T05:21:16.651Z,102440.87
2019-03-28T05:26:22.221Z,102438.73
2019-03-28T05:31:29.028Z,102446.09
2019-03-28T05:36:34.771Z,102446.63
2019-03-28T05:41:41.517Z,102448.92
2019-03-28T05:46:47.086Z,102452.90
2019-03-28T05:51:54.194Z,102457.81
2019-03-28T05:56:59.783Z,102468.03
2019-03-28T06:02:05.470Z,102464.79
2019-03-28T06:07:11.878Z,102475.66
2019-03-28T06:12:19.244Z,102476.92
2019-03-28T06:17:25.473Z,102484.41
2019-03-28T06:22:31.053Z,102496.72
2019-03-28T06:27:36.944Z,102501.70
2019-03-28T06:32:43.642Z,102507.61
2019-03-28T06:37:51.606Z,102516.72
2019-03-28T06:42:58.919Z,102519.89
2019-03-28T06:48:05.724Z,102525.37
2019-03-28T06:53:11.371Z,102524.08
2019-03-28T06:58:17.111Z,102532.79
2019-03-28T07:03:23.159Z,102533.25
2019-03-28T07:08:29.471Z,102537.31
2019-03-28T07:13:36.383Z,102538.84
2019-03-28T07:18:42.645Z,102538.44
2019-03-28T07:23:49.357Z,102539.41
2019-03-28T07:28:54.939Z,102537.43
2019-03-28T07:34:01.861Z,102549.31
2019-03-28T07:39:08.206Z,102550.46
2019-03-28T07:44:14.127Z,102555.37
2019-03-28T07:49:21.474Z,102560.36
2019-03-28T07:54:28.841Z,102572.69
2019-03-28T07:59:36.302Z,102566.10
2019-03-28T08:04:43.515Z,102575.31
2019-03-28T08:09:49.254Z,102578.76
2019-03-28T08:14:55.095Z,102583.94
2019-03-28T08:20:01.409Z,102573.92
2019-03-28T08:25:11.717Z,102579.99
2019-03-28T08:30:19.642Z,102583.94
2019-03-28T08:35:26.071Z,102592.63
2019-03-28T08:40:39.716Z,102586.45
2019-03-28T08:45:45.111Z,102594.47
2019-03-28T08:50:50.750Z,102600.16
2019-03-28T08:55:56.506Z,102601.36
2019-03-28T09:01:02.468Z,102607.41
2019-03-28T09:06:08.782Z,102613.27
2019-03-28T09:11:14.729Z,102613.27
2019-03-28T09:16:20.600Z,102614.50
2019-03-28T09:21:26.437Z,102607.41
2019-03-28T09:26:32.295Z,102610.13
2019-03-28T09:31:38.214Z,102612.12
2019-03-28T09:36:44.085Z,102615.45
2019-03-28T09:41:50.417Z,102610.00
2019-03-28T09:46:56.390Z,102612.33
2019-03-28T09:52:03.934Z,102611.52
2019-03-28T09:57:09.589Z,102600.13
2019-03-28T10:02:15.332Z,102606.03
2019-03-28T10:07:20.929Z,102601.21
2019-03-28T10:12:26.571Z,102602.51
2019-03-28T10:17:32.158Z,102595.64
2019-03-28T10:22:38.601Z,102608.71
2019-03-28T10:27:46.282Z,102614.13
2019-03-28T10:32:52.878Z,102614.74
2019-03-28T10:37:58.461Z,102619.87
2019-03-28T10:43:06.265Z,102613.70
2019-03-28T10:48:12.143Z,102612.41
2019-03-28T10:53:18.066Z,102626.49
2019-03-28T10:58:24.708Z,102621.17
2019-03-28T11:03:30.585Z,102620.72
2019-03-28T11:08:36.678Z,102619.13
2019-03-28T11:13:43.257Z,102628.72
2019-03-28T11:18:49.091Z,102625.72
2019-03-28T11:23:55.236Z,102628.23
2019-03-28T11:29:01.220Z,102637.12
2019-03-28T11:34:07.166Z,102628.96
2019-03-28T11:39:13.118Z,102640.70
2019-03-28T11:44:19.162Z,102646.76
2019-03-28T11:49:25.572Z,102652.50
2019-03-28T11:54:33.001Z,102658.84
2019-03-28T11:59:38.593Z,102664.42
2019-03-28T12:04:44.232Z,102662.09
2019-03-28T12:09:50.378Z,102658.83
2019-03-28T12:14:55.949Z,102661.97
2019-03-28T12:20:01.609Z,102666.77
2019-03-28T12:25:07.612Z,102660.05
2019-03-28T12:30:16.211Z,102664.81
2019-03-28T12:35:22.511Z,102661.11
2019-03-28T12:40:28.355Z,102666.48
2019-03-28T12:45:35.223Z,102664.86
2019-03-28T12:50:41.458Z,102659.64
2019-03-28T12:55:49.961Z,102662.83
2019-03-28T13:00:56.476Z,102660.05
2019-03-28T13:06:02.201Z,102668.66
2019-03-28T13:11:08.048Z,102667.08
2019-03-28T13:16:14.257Z,102670.06
2019-03-28T13:21:21.799Z,102667.13
2019-03-28T13:26:28.169Z,102672.32
2019-03-28T13:31:34.178Z,102680.27
2019-03-28T13:36:40.064Z,102673.16
2019-03-28T13:41:46.176Z,102665.45
2019-03-28T13:46:52.147Z,102671.91
2019-03-28T13:51:57.711Z,102678.25
2019-03-28T13:57:05.572Z,102669.39
2019-03-28T14:02:11.228Z,102663.56
2019-03-28T14:07:17.652Z,102657.40
2019-03-28T14:12:23.518Z,102660.98
2019-03-28T14:17:29.769Z,102660.06
2019-03-28T14:22:35.742Z,102662.81
2019-03-28T14:27:42.934Z,102654.06
2019-03-28T14:32:53.449Z,102662.70
2019-03-28T14:37:56.710Z,102670.13
2019-03-28T14:43:02.291Z,102678.30
2019-03-28T14:48:07.900Z,102683.34
2019-03-28T14:53:14.036Z,102671.08
2019-03-28T14:58:22.507Z,102675.03
2019-03-28T15:03:30.017Z,102677.22
2019-03-28T15:08:37.205Z,102676.99
2019-03-28T15:13:43.475Z,102676.22
2019-03-28T15:18:49.221Z,102665.05
2019-03-28T15:23:56.696Z,102655.77
2019-03-28T15:29:03.432Z,102659.63
2019-03-28T15:34:09.007Z,102662.77
2019-03-28T15:39:14.863Z,102659.88
2019-03-28T15:44:20.933Z,102656.20
2019-03-28T15:49:27.932Z,102666.98
2019-03-28T15:54:35.751Z,102669.61
2019-03-28T15:59:41.733Z,102674.02
2019-03-28T16:04:47.961Z,102677.06
2019-03-28T16:09:55.173Z,102681.69
2019-03-28T16:15:01.359Z,102688.42
2019-03-28T16:20:09.076Z,102680.80
2019-03-28T16:25:14.882Z,102683.69
2019-03-28T16:30:25.738Z,102682.82
2019-03-28T16:35:32.376Z,102687.22
2019-03-28T16:40:38.317Z,102692.16
2019-03-28T16:45:44.652Z,102697.80
2019-03-28T16:50:50.523Z,102702.27
2019-03-28T16:55:57.740Z,102701.77
2019-03-28T17:01:03.690Z,102704.34
2019-03-28T17:06:10.112Z,102704.22
2019-03-28T17:11:16.112Z,102700.16
2019-03-28T17:16:22.442Z,102700.00
2019-03-28T17:21:28.782Z,102696.55
2019-03-28T17:26:34.347Z,102700.67
2019-03-28T17:31:40.573Z,102702.66
2019-03-28T17:36:46.162Z,102708.13
2019-03-28T17:41:52.012Z,102715.20
2019-03-28T17:46:58.840Z,102718.17
2019-03-28T17:52:04.418Z,102729.83
2019-03-28T17:57:10.120Z,102729.11
2019-03-28T18:02:16.715Z,102732.27
2019-03-28T18:07:22.766Z,102730.41
2019-03-28T18:12:28.945Z,102731.52
2019-03-28T18:17:34.579Z,102738.25
2019-03-28T18:22:40.180Z,102738.70
2019-03-28T18:27:45.897Z,102738.20
2019-03-28T18:32:51.966Z,102738.51
2019-03-28T18:37:58.220Z,102748.39
2019-03-28T18:43:04.230Z,102750.94
2019-03-28T18:48:11.247Z,102748.39
2019-03-28T18:53:17.297Z,102748.23
2019-03-28T18:58:23.543Z,102762.23
2019-03-28T19:03:29.737Z,102765.23
2019-03-28T19:08:37.390Z,102770.70
2019-03-28T19:13:43.384Z,102766.50
2019-03-28T19:18:49.352Z,102770.80
2019-03-28T19:23:55.554Z,102773.65
2019-03-28T19:29:01.841Z,102779.36
2019-03-28T19:34:07.795Z,102782.42
2019-03-28T19:39:16.576Z,102786.81
2019-03-28T19:44:25.601Z,102787.16
2019-03-28T19:49:30.437Z,102793.24
2019-03-28T19:54:36.198Z,102795.44
2019-03-28T19:59:42.352Z,102800.75
2019-03-28T20:04:48.254Z,102797.05
2019-03-28T20:09:57.323Z,102799.42
2019-03-28T20:15:03.670Z,102796.30
2019-03-28T20:20:10.029Z,102799.63
2019-03-28T20:25:15.712Z,102794.75
2019-03-28T20:30:22.581Z,102797.20
2019-03-28T20:35:29.800Z,102800.06
2019-03-28T20:40:36.030Z,102799.85
2019-03-28T20:45:42.002Z,102805.20
2019-03-28T20:50:48.284Z,102802.53
2019-03-28T20:55:54.392Z,102794.38
2019-03-28T21:01:00.166Z,102790.33
2019-03-28T21:06:15.225Z,102792.47
2019-03-28T21:11:13.821Z,102793.89
2019-03-28T21:16:19.485Z,102793.85
2019-03-28T21:21:25.598Z,102790.53
2019-03-28T21:26:33.256Z,102792.93
2019-03-28T21:31:49.301Z,102794.94
2019-03-28T21:36:46.267Z,102791.63
2019-03-28T21:41:52.751Z,102793.47
2019-03-28T21:46:58.888Z,102796.88
2019-03-28T21:52:07.518Z,102797.34
2019-03-28T21:57:14.581Z,102800.26
2019-03-28T22:02:20.713Z,102796.82
2019-03-28T22:07:26.649Z,102793.65
2019-03-28T22:12:32.627Z,102794.30
2019-03-28T22:17:38.585Z,102798.23
2019-03-28T22:22:45.664Z,102793.11
2019-03-28T22:27:51.570Z,102788.30
2019-03-28T22:32:57.150Z,102785.72
2019-03-28T22:38:03.103Z,102787.64
2019-03-28T22:43:08.794Z,102793.55
2019-03-28T22:48:14.836Z,102797.89
2019-03-28T22:53:20.645Z,102789.30
2019-03-28T22:58:27.577Z,102793.69
2019-03-28T23:03:34.416Z,102789.45
2019-03-28T23:08:40.400Z,102790.38
2019-03-28T23:13:46.048Z,102802.89
2019-03-28T23:18:51.624Z,102793.52
2019-03-28T23:23:57.652Z,102802.56
2019-03-28T23:29:04.735Z,102806.15
2019-03-28T23:34:11.859Z,102806.88
2019-03-28T23:39:18.399Z,102801.01
2019-03-28T23:44:25.787Z,102806.26
2019-03-28T23:49:33.002Z,102802.13
2019-03-28T23:54:39.068Z,102799.14
2019-03-28T23:59:45.090Z,102805.36
